SPTN/TCQ METAR and TAF weather

Enter ICAO airport designator
Station Type Date Time Source
SPTN METAR 2021/05/11 17:00 UTC NOAA

SPTN 111700Z 22004KT 190V270 9999 FEW033 20/13 Q1015 RMK PP000


Station Type Date Time Source
SPTN Decoded METAR 2021/05/11 17:00 UTC NOAA

Tacna, Peru (SPTN) 18-04S 070-18W 469M
May 11, 2021 - 01:00 PM EDT / 2021.05.11 1700 UTC
Wind: from the SW (220 degrees) at 5 MPH (4 KT) (direction variable):0
Visibility: greater than 7 mile(s):0
Sky conditions: mostly clear
Temperature: 68 F (20 C)
Dew Point: 55 F (13 C)
Relative Humidity: 64%
Pressure (altimeter): 29.97 in. Hg (1015 hPa)
ob: SPTN 111700Z 22004KT 190V270 9999 FEW033 20/13 Q1015 RMK PP000
cycle: 17

Station Type Date Time Source
SPTN TAF 2021/05/11 18:33 UTC NOAA

TAF SPTN 111700Z 1118/1218 22008KT 9999 SCT030 TX22/1119Z TN15/1210Z
FM112300 20003KT 8000 OVC020
BECMG 1202/1205 4500 BR OVC012
BECMG 1207/1210 9999 BKN030

Example: see airport list